Flora, Mississippi
Current Conditions -  °F | °C
As of 4:53 PM on Friday 31 Oct 2014 (Local Time) from KHKS Reporting Station
Broken Clouds Broken Clouds  
Wind Chill: 62°   Ceiling: 4400
Heat Index: 62°   Visibility: 10mi
Dew Point: 44°   Wind: 14mph
Humidity: 52%   Direction: 350°N
Pressure: 30.13"   Gusts: 24mph
Location:  32.54°N, 90.31°W
Report Text: KHKS 312153Z 35012G21KT 10SM BKN044 17/07 A3013 RMK AO2 PK WND 32026/2137 PRESRR SLP196 T01670067
Loading
Personal Weather Stations






























Interactive Weather Map
Tropical Storm Tracking
New forecast layout! Learn more

10-Day Weather Forecast

Advertisements
Track Severe Weather on mobile